createdAt,value
2022-08-11T00:01:06.893Z,21.12
2022-08-11T00:03:42.348Z,21.09
2022-08-11T00:06:14.209Z,21.07
2022-08-11T00:08:41.788Z,21.11
2022-08-11T00:11:12.440Z,21.16
2022-08-11T00:13:45.795Z,21.14
2022-08-11T00:16:22.539Z,21.14
2022-08-11T00:18:52.407Z,21.15
2022-08-11T00:22:02.789Z,21.03
2022-08-11T00:24:11.424Z,21.01
2022-08-11T00:26:37.962Z,21.01
2022-08-11T00:29:11.850Z,20.90
2022-08-11T00:31:44.211Z,20.88
2022-08-11T00:34:12.746Z,20.94
2022-08-11T00:36:45.962Z,20.80
2022-08-11T00:39:14.504Z,20.73
2022-08-11T00:42:09.820Z,20.78
2022-08-11T00:44:51.520Z,20.81
2022-08-11T00:47:21.019Z,20.68
2022-08-11T00:50:06.283Z,20.60
2022-08-11T00:52:59.709Z,20.52
2022-08-11T00:55:38.706Z,20.53
2022-08-11T00:58:30.065Z,20.34
2022-08-11T01:01:16.856Z,19.99
2022-08-11T01:04:11.533Z,20.00
2022-08-11T01:06:50.138Z,20.04
2022-08-11T01:09:51.790Z,20.02
2022-08-11T01:12:21.272Z,19.98
2022-08-11T01:15:06.814Z,20.00
2022-08-11T01:17:59.134Z,20.06
2022-08-11T01:20:49.498Z,20.12
2022-08-11T01:23:37.930Z,20.17
2022-08-11T01:26:42.086Z,20.09
2022-08-11T01:29:49.065Z,19.97
2022-08-11T01:32:53.857Z,19.90
2022-08-11T01:35:51.491Z,19.84
2022-08-11T01:38:53.700Z,19.76
2022-08-11T01:41:54.636Z,19.75
2022-08-11T01:44:59.365Z,18.93
2022-08-11T01:47:56.049Z,18.82
2022-08-11T01:50:42.534Z,19.04
2022-08-11T01:53:30.538Z,19.22
2022-08-11T01:56:17.387Z,19.24
2022-08-11T01:59:08.865Z,19.03
2022-08-11T02:02:20.559Z,19.03
2022-08-11T02:04:59.071Z,19.27
2022-08-11T02:07:40.118Z,19.27
2022-08-11T02:10:36.348Z,18.88
2022-08-11T02:13:36.776Z,18.88
2022-08-11T02:16:08.789Z,18.99
2022-08-11T02:19:00.006Z,18.87
2022-08-11T02:22:04.979Z,18.91
2022-08-11T02:24:40.019Z,18.87
2022-08-11T02:27:23.482Z,18.93
2022-08-11T02:30:05.064Z,18.82
2022-08-11T02:33:13.662Z,18.86
2022-08-11T02:36:08.539Z,18.79
2022-08-11T02:38:51.568Z,18.77
2022-08-11T02:41:55.623Z,18.77
2022-08-11T02:44:34.697Z,18.71
2022-08-11T02:48:11.303Z,18.76
2022-08-11T02:51:06.330Z,18.44
2022-08-11T02:53:58.119Z,18.49
2022-08-11T02:56:37.026Z,18.58
2022-08-11T02:59:49.638Z,18.57
2022-08-11T03:02:38.291Z,18.44
2022-08-11T03:05:04.876Z,18.45
2022-08-11T03:07:41.438Z,18.46
2022-08-11T03:11:14.955Z,18.39
2022-08-11T03:14:17.378Z,18.30
2022-08-11T03:16:55.665Z,18.38
2022-08-11T03:19:23.458Z,18.32
2022-08-11T03:22:14.882Z,18.17
2022-08-11T03:25:08.855Z,18.06
2022-08-11T03:28:02.602Z,18.12
2022-08-11T03:30:47.273Z,17.87
2022-08-11T03:33:42.173Z,18.07
2022-08-11T03:36:27.443Z,18.06
2022-08-11T03:39:06.300Z,18.16
2022-08-11T03:42:02.907Z,18.02
2022-08-11T03:44:37.398Z,18.01
2022-08-11T03:47:54.871Z,17.94
2022-08-11T03:50:59.435Z,17.82
2022-08-11T03:53:56.611Z,17.76
2022-08-11T03:56:52.953Z,17.78
2022-08-11T03:59:38.042Z,17.91
2022-08-11T04:02:33.010Z,17.82
2022-08-11T04:05:24.801Z,17.84
2022-08-11T04:07:57.073Z,17.73
2022-08-11T04:10:58.320Z,17.53
2022-08-11T04:14:23.128Z,17.37
2022-08-11T04:17:22.863Z,17.45
2022-08-11T04:20:19.419Z,17.53
2022-08-11T04:23:03.200Z,17.63
2022-08-11T04:26:15.914Z,17.46
2022-08-11T04:29:25.689Z,17.60
2022-08-11T04:32:40.279Z,17.58
2022-08-11T04:35:25.834Z,17.48
2022-08-11T04:37:55.109Z,17.49
2022-08-11T04:40:27.366Z,17.42
2022-08-11T04:43:21.255Z,17.61
2022-08-11T04:45:50.720Z,17.58
2022-08-11T04:48:35.804Z,17.63
2022-08-11T04:51:56.334Z,17.70
2022-08-11T04:55:17.106Z,17.82
2022-08-11T04:58:20.288Z,17.82
2022-08-11T05:01:17.504Z,17.81
2022-08-11T05:04:31.458Z,17.86
2022-08-11T05:07:35.468Z,18.07
2022-08-11T05:10:33.136Z,18.18
2022-08-11T05:13:26.642Z,18.21
2022-08-11T05:16:16.687Z,18.26
2022-08-11T05:19:09.336Z,18.40
2022-08-11T05:21:55.174Z,18.49
2022-08-11T05:24:45.507Z,18.61
2022-08-11T05:27:33.960Z,18.72
2022-08-11T05:30:23.982Z,18.86
2022-08-11T05:33:24.086Z,19.02
2022-08-11T05:36:03.289Z,19.09
2022-08-11T05:38:51.191Z,19.23
2022-08-11T05:41:39.545Z,19.34
2022-08-11T05:44:24.970Z,19.43
2022-08-11T05:47:10.852Z,19.59
2022-08-11T05:49:58.301Z,19.74
2022-08-11T05:52:47.121Z,19.85
2022-08-11T05:55:35.138Z,20.15
2022-08-11T05:58:05.053Z,20.38
2022-08-11T06:00:41.711Z,20.48
2022-08-11T06:03:11.070Z,20.57
2022-08-11T06:05:43.686Z,20.69
2022-08-11T06:08:12.807Z,20.86
2022-08-11T06:10:42.317Z,20.86
2022-08-11T06:13:10.236Z,21.16
2022-08-11T06:15:48.668Z,21.28
2022-08-11T06:18:16.080Z,21.35
2022-08-11T06:20:52.692Z,21.56
2022-08-11T06:23:23.054Z,21.78
2022-08-11T06:25:52.507Z,21.88
2022-08-11T06:28:21.372Z,22.07
2022-08-11T06:30:48.963Z,22.15
2022-08-11T06:33:21.486Z,22.24
2022-08-11T06:36:00.267Z,22.28
2022-08-11T06:38:45.738Z,22.43
2022-08-11T06:41:30.339Z,22.29
2022-08-11T06:44:13.108Z,22.55
2022-08-11T06:46:46.717Z,22.79
2022-08-11T06:49:34.511Z,22.99
2022-08-11T06:52:12.761Z,23.07
2022-08-11T06:55:04.249Z,23.23
2022-08-11T06:57:50.431Z,23.09
2022-08-11T07:00:30.629Z,23.18
2022-08-11T07:03:11.794Z,23.41
2022-08-11T07:05:56.258Z,23.53
2022-08-11T07:09:11.997Z,23.78
2022-08-11T07:11:59.898Z,23.84
2022-08-11T07:14:48.476Z,23.90
2022-08-11T07:17:19.806Z,24.03
2022-08-11T07:20:12.537Z,24.10
2022-08-11T07:23:10.035Z,24.41
2022-08-11T07:25:58.483Z,24.55
2022-08-11T07:28:46.927Z,24.53
2022-08-11T07:31:42.123Z,24.60
2022-08-11T07:34:28.078Z,24.73
2022-08-11T07:36:57.200Z,24.90
2022-08-11T07:39:27.858Z,24.87
2022-08-11T07:41:57.234Z,24.94
2022-08-11T07:44:34.335Z,24.99
2022-08-11T07:47:20.627Z,25.10
2022-08-11T07:50:09.024Z,24.95
2022-08-11T07:52:38.122Z,25.20
2022-08-11T07:55:14.740Z,25.40
2022-08-11T07:58:16.576Z,25.51
2022-08-11T08:01:21.513Z,25.66
2022-08-11T08:04:08.109Z,25.68
2022-08-11T08:06:54.946Z,25.82
2022-08-11T08:09:41.406Z,25.83
2022-08-11T08:12:27.811Z,26.01
2022-08-11T08:15:14.296Z,25.96
2022-08-11T08:18:09.137Z,26.24
2022-08-11T08:20:52.022Z,26.21
2022-08-11T08:23:33.776Z,26.40
2022-08-11T08:26:04.526Z,26.37
2022-08-11T08:28:33.247Z,26.36
2022-08-11T08:31:00.458Z,26.42
2022-08-11T08:33:29.710Z,26.50
2022-08-11T08:36:16.871Z,26.53
2022-08-11T08:38:52.830Z,26.60
2022-08-11T08:41:27.214Z,26.57
2022-08-11T08:44:05.932Z,26.70
2022-08-11T08:46:48.507Z,26.92
2022-08-11T08:49:18.295Z,26.96
2022-08-11T08:52:01.019Z,26.97
2022-08-11T08:54:38.161Z,27.11
2022-08-11T08:57:07.711Z,27.45
2022-08-11T08:59:48.582Z,27.48
2022-08-11T09:02:17.615Z,27.44
2022-08-11T09:04:46.922Z,27.29
2022-08-11T09:07:16.647Z,27.32
2022-08-11T09:09:46.402Z,27.48
2022-08-11T09:12:14.058Z,27.56
2022-08-11T09:15:02.789Z,27.61
2022-08-11T09:17:30.962Z,27.70
2022-08-11T09:20:07.223Z,27.76
2022-08-11T09:23:24.287Z,28.05
2022-08-11T09:26:03.478Z,27.97
2022-08-11T09:28:32.072Z,28.17
2022-08-11T09:31:01.265Z,28.42
2022-08-11T09:33:28.373Z,28.61
2022-08-11T09:35:55.707Z,28.73
2022-08-11T09:38:49.307Z,28.58
2022-08-11T09:41:17.073Z,28.73
2022-08-11T09:44:05.227Z,28.65
2022-08-11T09:46:33.171Z,28.66
2022-08-11T09:49:01.426Z,28.74
2022-08-11T09:51:32.201Z,29.16
2022-08-11T09:54:06.597Z,29.14
2022-08-11T09:56:53.189Z,29.37
2022-08-11T09:59:22.032Z,29.28
2022-08-11T10:01:53.122Z,29.20
2022-08-11T10:04:28.599Z,29.44
2022-08-11T10:07:01.813Z,29.14
2022-08-11T10:09:39.497Z,28.92
2022-08-11T10:12:10.754Z,29.13
2022-08-11T10:15:05.465Z,29.61
2022-08-11T10:17:35.676Z,29.60
2022-08-11T10:20:05.891Z,29.57
2022-08-11T10:22:53.091Z,29.50
2022-08-11T10:25:39.298Z,29.57
2022-08-11T10:28:32.775Z,29.99
2022-08-11T10:31:14.622Z,29.85
2022-08-11T10:34:00.864Z,30.13
2022-08-11T10:36:30.901Z,29.73
2022-08-11T10:38:59.697Z,30.33
2022-08-11T10:42:08.233Z,30.37
2022-08-11T10:44:38.655Z,30.16
2022-08-11T10:47:25.461Z,30.03
2022-08-11T10:50:11.814Z,30.06
2022-08-11T10:52:58.952Z,30.10
2022-08-11T10:55:44.905Z,30.47
2022-08-11T10:58:31.750Z,30.33
2022-08-11T11:01:15.625Z,30.74
2022-08-11T11:03:45.805Z,31.04
2022-08-11T11:06:45.606Z,31.64
2022-08-11T11:09:53.866Z,31.68
2022-08-11T11:13:09.004Z,31.37
2022-08-11T11:15:55.919Z,30.74
2022-08-11T11:19:00.968Z,30.07
2022-08-11T11:21:48.603Z,30.28
2022-08-11T11:24:50.978Z,30.99
2022-08-11T11:27:52.626Z,31.04
2022-08-11T11:30:28.200Z,30.36
2022-08-11T11:33:07.060Z,31.64
2022-08-11T11:36:12.226Z,31.91
2022-08-11T11:38:43.315Z,30.95
2022-08-11T11:41:26.938Z,30.05
2022-08-11T11:44:01.805Z,30.97
2022-08-11T11:46:38.807Z,31.35
2022-08-11T11:49:16.741Z,31.43
2022-08-11T11:51:52.631Z,31.44
2022-08-11T11:54:28.784Z,31.28
2022-08-11T11:56:58.868Z,31.96
2022-08-11T11:59:47.131Z,31.30
2022-08-11T12:02:15.865Z,31.31
2022-08-11T12:04:45.823Z,31.74
2022-08-11T12:08:05.208Z,31.81
2022-08-11T12:10:50.962Z,32.36
2022-08-11T12:13:37.954Z,32.10
2022-08-11T12:16:33.950Z,32.05
2022-08-11T12:18:56.928Z,32.62
2022-08-11T12:21:25.296Z,32.44
2022-08-11T12:24:10.956Z,32.32
2022-08-11T12:27:15.924Z,32.20
2022-08-11T12:29:49.105Z,31.64
2022-08-11T12:32:24.556Z,31.53
2022-08-11T12:34:51.698Z,31.21
2022-08-11T12:37:24.111Z,30.99
2022-08-11T12:40:43.055Z,31.47
2022-08-11T12:43:38.325Z,31.83
2022-08-11T12:46:16.765Z,31.64
2022-08-11T12:49:10.130Z,32.08
2022-08-11T12:52:13.120Z,32.75
2022-08-11T12:54:58.288Z,33.13
2022-08-11T12:57:57.115Z,32.58
2022-08-11T13:00:46.478Z,32.46
2022-08-11T13:03:41.772Z,33.14
2022-08-11T13:06:17.446Z,32.96
2022-08-11T13:09:01.653Z,32.46
2022-08-11T13:11:56.913Z,32.59
2022-08-11T13:14:27.786Z,33.08
2022-08-11T13:17:17.768Z,33.41
2022-08-11T13:19:59.434Z,32.03
2022-08-11T13:22:28.461Z,32.53
2022-08-11T13:25:37.270Z,33.07
2022-08-11T13:28:09.334Z,32.90
2022-08-11T13:30:55.144Z,32.83
2022-08-11T13:33:27.640Z,32.41
2022-08-11T13:36:02.869Z,32.00
2022-08-11T13:38:32.936Z,32.09
2022-08-11T13:41:30.928Z,32.22
2022-08-11T13:44:02.714Z,32.05
2022-08-11T13:46:38.076Z,32.31
2022-08-11T13:49:47.778Z,32.29
2022-08-11T13:56:05.429Z,31.89
2022-08-11T13:58:39.941Z,31.90
2022-08-11T14:01:35.282Z,31.86
2022-08-11T14:04:30.203Z,32.27
2022-08-11T14:07:02.198Z,32.78
2022-08-11T14:09:38.562Z,32.39
2022-08-11T14:12:32.916Z,33.37
2022-08-11T14:15:18.256Z,33.45
2022-08-11T14:18:01.853Z,33.38
2022-08-11T14:21:05.400Z,33.01
2022-08-11T14:23:43.579Z,33.02
2022-08-11T14:26:39.426Z,32.49
2022-08-11T14:29:46.329Z,32.42
2022-08-11T14:32:52.863Z,32.99
2022-08-11T14:35:39.113Z,32.95
2022-08-11T14:38:24.407Z,32.90
2022-08-11T14:41:23.492Z,32.69
2022-08-11T14:44:14.914Z,33.30
2022-08-11T14:47:32.232Z,32.28
2022-08-11T14:53:26.810Z,33.24
2022-08-11T14:56:39.221Z,33.31
2022-08-11T14:59:15.054Z,32.30
2022-08-11T15:02:23.484Z,31.87
2022-08-11T15:04:51.109Z,32.25
2022-08-11T15:07:33.727Z,32.48
2022-08-11T15:10:13.880Z,32.46
2022-08-11T15:12:53.343Z,32.25
2022-08-11T15:15:39.023Z,32.11
2022-08-11T15:18:14.468Z,32.82
2022-08-11T15:21:09.144Z,32.95
2022-08-11T15:23:55.449Z,32.91
2022-08-11T15:27:03.893Z,32.29
2022-08-11T15:29:58.892Z,32.35
2022-08-11T15:32:54.557Z,32.64
2022-08-11T15:35:47.997Z,33.18
2022-08-11T15:38:22.952Z,32.64
2022-08-11T15:41:23.252Z,32.30
2022-08-11T15:44:16.173Z,32.56
2022-08-11T15:46:52.542Z,32.56
2022-08-11T15:50:11.615Z,32.68
2022-08-11T15:52:38.350Z,32.23
2022-08-11T15:58:38.813Z,32.08
2022-08-11T16:01:36.618Z,31.88
2022-08-11T16:04:13.191Z,31.96
2022-08-11T16:07:06.552Z,31.78
2022-08-11T16:09:47.618Z,32.28
2022-08-11T16:12:28.641Z,31.98
2022-08-11T16:15:23.363Z,31.47
2022-08-11T16:18:01.770Z,31.81
2022-08-11T16:20:34.849Z,31.90
2022-08-11T16:23:07.645Z,31.55
2022-08-11T16:26:38.799Z,31.78
2022-08-11T16:28:32.961Z,31.94
2022-08-11T16:31:04.051Z,32.09
2022-08-11T16:33:51.353Z,31.85
2022-08-11T16:36:44.727Z,31.44
2022-08-11T16:39:19.741Z,31.27
2022-08-11T16:42:07.465Z,31.47
2022-08-11T16:45:15.601Z,31.68
2022-08-11T16:48:02.804Z,31.37
2022-08-11T16:50:50.365Z,31.43
2022-08-11T16:53:59.664Z,31.23
2022-08-11T16:56:21.877Z,31.62
2022-08-11T16:59:20.173Z,31.92
2022-08-11T17:02:06.690Z,31.64
2022-08-11T17:05:16.593Z,31.60
2022-08-11T17:08:15.611Z,31.52
2022-08-11T17:11:12.481Z,31.25
2022-08-11T17:14:01.398Z,31.27
2022-08-11T17:16:35.951Z,31.21
2022-08-11T17:19:12.438Z,31.19
2022-08-11T17:22:15.504Z,31.06
2022-08-11T17:24:46.614Z,31.15
2022-08-11T17:27:16.872Z,31.26
2022-08-11T17:29:57.114Z,31.16
2022-08-11T17:32:57.103Z,31.01
2022-08-11T17:35:45.011Z,30.98
2022-08-11T17:38:27.193Z,30.59
2022-08-11T17:44:41.585Z,30.75
2022-08-11T17:50:17.974Z,30.60
2022-08-11T17:53:07.776Z,30.66
2022-08-11T17:55:58.141Z,30.55
2022-08-11T17:58:45.852Z,30.08
2022-08-11T18:01:20.569Z,30.28
2022-08-11T18:03:58.174Z,29.95
2022-08-11T18:06:33.795Z,29.89
2022-08-11T18:09:27.128Z,29.60
2022-08-11T18:12:14.968Z,29.87
2022-08-11T18:15:10.474Z,30.04
2022-08-11T18:17:58.318Z,30.13
2022-08-11T18:20:46.745Z,29.98
2022-08-11T18:23:46.637Z,29.70
2022-08-11T18:26:40.589Z,29.91
2022-08-11T18:29:41.729Z,29.61
2022-08-11T18:32:49.314Z,29.53
2022-08-11T18:35:40.169Z,29.50
2022-08-11T18:38:34.873Z,29.53
2022-08-11T18:41:27.958Z,29.61
2022-08-11T18:44:22.947Z,29.37
2022-08-11T18:47:17.342Z,29.44
2022-08-11T18:50:18.115Z,29.37
2022-08-11T18:53:16.826Z,29.45
2022-08-11T18:56:03.807Z,29.14
2022-08-11T18:58:55.855Z,28.98
2022-08-11T19:01:46.020Z,28.88
2022-08-11T19:04:32.714Z,28.59
2022-08-11T19:07:33.682Z,28.67
2022-08-11T19:13:18.053Z,28.28
2022-08-11T19:16:07.053Z,28.48
2022-08-11T19:18:53.044Z,28.55
2022-08-11T19:21:48.902Z,28.49
2022-08-11T19:24:38.214Z,28.42
2022-08-11T19:27:23.887Z,28.21
2022-08-11T19:30:14.294Z,27.95
2022-08-11T19:33:05.596Z,27.91
2022-08-11T19:35:52.401Z,27.90
2022-08-11T19:38:40.453Z,27.82
2022-08-11T19:41:56.988Z,27.64
2022-08-11T19:44:43.020Z,27.56
2022-08-11T19:47:36.503Z,27.46
2022-08-11T19:50:24.501Z,27.37
2022-08-11T19:53:17.473Z,27.29
2022-08-11T19:56:05.935Z,27.27
2022-08-11T19:58:54.763Z,27.18
2022-08-11T20:01:40.170Z,26.97
2022-08-11T20:04:46.028Z,26.76
2022-08-11T20:07:32.250Z,26.67
2022-08-11T20:10:18.725Z,26.71
2022-08-11T20:13:05.229Z,26.54
2022-08-11T20:15:52.608Z,26.45
2022-08-11T20:18:39.045Z,26.43
2022-08-11T20:21:31.722Z,26.43
2022-08-11T20:24:21.512Z,26.26
2022-08-11T20:27:24.035Z,26.18
2022-08-11T20:30:23.196Z,26.15
2022-08-11T20:36:35.425Z,25.95
2022-08-11T20:39:30.646Z,25.83
2022-08-11T20:42:34.339Z,25.86
2022-08-11T20:45:26.617Z,25.75
2022-08-11T20:48:24.876Z,25.62
2022-08-11T20:51:38.730Z,25.60
2022-08-11T20:54:41.955Z,25.47
2022-08-11T20:57:59.425Z,25.38
2022-08-11T21:00:56.590Z,25.24
2022-08-11T21:03:54.940Z,25.24
2022-08-11T21:06:56.629Z,25.15
2022-08-11T21:09:58.524Z,25.08
2022-08-11T21:12:55.559Z,24.95
2022-08-11T21:16:01.807Z,24.94
2022-08-11T21:18:58.379Z,24.78
2022-08-11T21:21:50.039Z,24.55
2022-08-11T21:24:53.511Z,24.54
2022-08-11T21:27:47.037Z,24.38
2022-08-11T21:30:51.403Z,24.51
2022-08-11T21:33:51.040Z,24.31
2022-08-11T21:36:49.785Z,24.25
2022-08-11T21:40:08.267Z,24.14
2022-08-11T21:43:09.568Z,24.12
2022-08-11T21:46:09.476Z,24.07
2022-08-11T21:49:04.538Z,24.09
2022-08-11T21:51:52.964Z,23.92
2022-08-11T21:54:49.199Z,23.99
2022-08-11T21:57:48.154Z,23.89
2022-08-11T22:00:38.939Z,23.74
2022-08-11T22:03:28.287Z,23.62
2022-08-11T22:06:30.412Z,23.44
2022-08-11T22:09:19.402Z,23.41
2022-08-11T22:12:34.481Z,23.37
2022-08-11T22:15:23.031Z,23.31
2022-08-11T22:18:12.546Z,23.20
2022-08-11T22:21:12.544Z,22.89
2022-08-11T22:24:30.167Z,23.05
2022-08-11T22:27:22.331Z,23.07
2022-08-11T22:30:34.725Z,23.00
2022-08-11T22:33:28.858Z,23.06
2022-08-11T22:36:23.182Z,22.98
2022-08-11T22:39:14.438Z,22.95
2022-08-11T22:42:09.708Z,22.69
2022-08-11T22:45:09.560Z,22.71
2022-08-11T22:48:03.632Z,22.07
2022-08-11T22:51:01.193Z,22.29
2022-08-11T22:53:58.370Z,22.30
2022-08-11T22:56:57.426Z,22.35
2022-08-11T22:59:49.871Z,22.38
2022-08-11T23:02:45.810Z,22.45
2022-08-11T23:05:38.344Z,22.56
2022-08-11T23:08:24.426Z,22.46
2022-08-11T23:11:19.266Z,22.11
2022-08-11T23:14:08.104Z,22.19
2022-08-11T23:17:00.688Z,22.15
2022-08-11T23:19:59.968Z,22.05
2022-08-11T23:22:58.920Z,22.04
2022-08-11T23:25:45.861Z,22.05
2022-08-11T23:28:32.863Z,22.08
2022-08-11T23:31:18.864Z,22.11
2022-08-11T23:34:08.218Z,22.11
2022-08-11T23:37:14.286Z,21.61
2022-08-11T23:39:59.564Z,21.18
2022-08-11T23:42:46.246Z,21.12
2022-08-11T23:45:32.884Z,21.43
2022-08-11T23:48:20.593Z,21.56
2022-08-11T23:51:06.527Z,21.64
2022-08-11T23:53:52.494Z,21.45
2022-08-11T23:56:37.854Z,21.42
2022-08-11T23:59:23.270Z,21.47
